Time;durP1;ratioP1;P1;durP2;ratioP2;P2;SDS_P1;SDS_P2;PMS_P1;PMS_P2;Temp;Humidity;BMP_temperature;BMP_pressure;BME280_temperature;BME280_humidity;BME280_pressure;Samples;Min_cycle;Max_cycle;Signal;HPM_P1;HPM_P2
2023/07/10 00:01:27;;;;;;;33.03;15.43;;;19.10;99.90;;;;;;4990984;28;213437;-69
2023/07/10 00:03:53;;;;;;;25.92;14.82;;;19.00;99.90;;;;;;4984105;28;20053;-70
2023/07/10 00:06:20;;;;;;;26.40;15.05;;;19.00;99.90;;;;;;5018309;28;20057;-70
2023/07/10 00:08:46;;;;;;;29.73;15.43;;;19.00;99.90;;;;;;4977418;28;264330;-71
2023/07/10 00:11:16;;;;;;;25.85;14.68;;;19.00;99.90;;;;;;5025430;28;20053;-70
2023/07/10 00:13:43;;;;;;;31.88;15.05;;;19.00;99.90;;;;;;4958955;28;212436;-70
2023/07/10 00:16:15;;;;;;;27.38;14.88;;;19.00;99.90;;;;;;5020542;28;20061;-70
2023/07/10 00:18:42;;;;;;;25.67;13.73;;;19.10;99.90;;;;;;4978792;28;217973;-70
2023/07/10 00:21:08;;;;;;;25.45;14.07;;;19.00;99.90;;;;;;5023965;28;20529;-70
2023/07/10 00:23:34;;;;;;;27.52;14.68;;;19.10;99.90;;;;;;4970373;28;211568;-70
2023/07/10 00:26:01;;;;;;;24.60;13.68;;;19.10;99.90;;;;;;5025080;28;20065;-70
2023/07/10 00:28:27;;;;;;;23.10;13.85;;;19.10;99.90;;;;;;4976592;28;212414;-71
2023/07/10 00:30:53;;;;;;;23.88;13.60;;;19.10;99.90;;;;;;5025638;28;20057;-70
2023/07/10 00:33:20;;;;;;;23.08;12.50;;;19.10;99.90;;;;;;4978800;28;207361;-70
2023/07/10 00:35:46;;;;;;;25.40;14.77;;;19.10;99.90;;;;;;5018652;28;20430;-71
2023/07/10 00:38:29;;;;;;;27.52;15.25;;;19.10;99.90;;;;;;4970095;28;218485;-71
2023/07/10 00:41:00;;;;;;;26.80;14.32;;;19.10;99.90;;;;;;5015565;28;20064;-70
2023/07/10 00:43:42;;;;;;;27.02;15.30;;;19.10;99.90;;;;;;4983217;28;231534;-70
2023/07/10 00:46:26;;;;;;;25.98;15.68;;;19.10;99.90;;;;;;5024429;28;20048;-71
2023/07/10 00:48:57;;;;;;;27.50;16.33;;;19.10;99.90;;;;;;4959584;28;74914;-71
2023/07/10 00:51:30;;;;;;;31.02;17.27;;;19.00;99.90;;;;;;5006506;28;217242;-69
2023/07/10 00:53:57;;;;;;;27.67;17.42;;;19.00;99.90;;;;;;4972024;28;20056;-71
2023/07/10 00:56:28;;;;;;;30.95;17.95;;;18.90;99.90;;;;;;5004951;28;210458;-69
2023/07/10 00:58:54;;;;;;;28.35;18.60;;;19.00;99.90;;;;;;4955534;28;20045;-70
2023/07/10 01:01:23;;;;;;;32.08;20.13;;;19.00;99.90;;;;;;5023260;28;20550;-70
2023/07/10 01:03:51;;;;;;;35.53;19.67;;;18.90;99.90;;;;;;4989648;28;209820;-70
2023/07/10 01:06:27;;;;;;;30.23;19.55;;;18.90;99.90;;;;;;5027126;28;20053;-70
2023/07/10 01:09:02;;;;;;;35.85;20.77;;;18.90;99.90;;;;;;4961720;28;206732;-71
2023/07/10 01:11:29;;;;;;;39.78;21.70;;;18.90;99.90;;;;;;4976471;28;211557;-70
2023/07/10 01:13:57;;;;;;;38.30;20.60;;;18.90;99.90;;;;;;5027814;28;20140;-70
2023/07/10 01:16:25;;;;;;;32.72;21.00;;;18.90;99.90;;;;;;5010485;28;212261;-70
2023/07/10 01:18:52;;;;;;;41.05;22.42;;;18.90;99.90;;;;;;4946437;28;20041;-70
2023/07/10 01:21:26;;;;;;;35.20;22.10;;;18.90;99.90;;;;;;5006940;28;21233;-70
2023/07/10 01:23:55;;;;;;;38.20;22.33;;;18.90;99.90;;;;;;4956093;28;20703;-71
2023/07/10 01:26:22;;;;;;;33.40;21.88;;;18.90;99.90;;;;;;4999278;28;211178;-70
2023/07/10 01:28:48;;;;;;;35.30;21.23;;;18.90;99.90;;;;;;4979618;28;48968;-71
2023/07/10 01:31:17;;;;;;;37.10;22.58;;;18.80;99.90;;;;;;5030038;28;20064;-70
2023/07/10 01:33:56;;;;;;;38.78;23.55;;;18.80;99.90;;;;;;4942714;28;210084;-71
2023/07/10 01:36:28;;;;;;;31.73;21.30;;;18.80;99.90;;;;;;5014855;28;223747;-70
2023/07/10 01:39:01;;;;;;;33.45;23.20;;;18.70;99.90;;;;;;4979064;28;61406;-70
2023/07/10 01:41:36;;;;;;;38.20;22.58;;;18.70;99.90;;;;;;4982655;28;210008;-71
2023/07/10 01:44:10;;;;;;;34.25;22.42;;;18.70;99.90;;;;;;5024572;28;20061;-71
2023/07/10 01:46:36;;;;;;;36.47;23.45;;;18.70;99.90;;;;;;4974721;28;212958;-70
2023/07/10 01:49:02;;;;;;;33.75;21.92;;;18.60;99.90;;;;;;5038580;28;20056;-71
2023/07/10 01:51:29;;;;;;;33.08;22.90;;;18.60;99.90;;;;;;4973030;28;211019;-70
2023/07/10 01:54:00;;;;;;;34.97;22.90;;;18.60;99.90;;;;;;4995626;28;20042;-70
2023/07/10 01:56:27;;;;;;;41.08;23.58;;;18.60;99.90;;;;;;4957144;28;209760;-70
2023/07/10 01:58:53;;;;;;;35.00;22.83;;;18.60;99.90;;;;;;4998204;28;98190;-71
2023/07/10 02:01:19;;;;;;;38.50;23.10;;;18.60;99.90;;;;;;5023187;28;20522;-70
2023/07/10 02:03:45;;;;;;;36.45;23.05;;;18.60;99.90;;;;;;4978573;28;222680;-70
2023/07/10 02:06:12;;;;;;;37.65;24.30;;;18.60;99.90;;;;;;5008222;28;20049;-70
2023/07/10 02:08:38;;;;;;;35.75;23.40;;;18.60;99.90;;;;;;4965522;28;213308;-71
2023/07/10 02:11:04;;;;;;;36.97;24.48;;;18.60;99.90;;;;;;5010753;28;20060;-70
2023/07/10 02:13:30;;;;;;;35.42;23.13;;;18.50;99.90;;;;;;4966873;28;209030;-71
2023/07/10 02:16:03;;;;;;;34.35;23.08;;;18.50;99.90;;;;;;5022375;28;20471;-71
2023/07/10 02:18:29;;;;;;;35.47;23.50;;;18.50;99.90;;;;;;4975951;28;212015;-70
2023/07/10 02:20:55;;;;;;;30.13;21.98;;;18.50;99.90;;;;;;5024435;28;21855;-70
2023/07/10 02:23:21;;;;;;;42.35;24.80;;;18.50;99.90;;;;;;4968764;28;218873;-69
2023/07/10 02:25:48;;;;;;;35.20;22.83;;;18.50;99.90;;;;;;5023434;28;20582;-69
2023/07/10 02:28:15;;;;;;;33.42;21.92;;;18.50;99.90;;;;;;4974436;28;213137;-70
2023/07/10 02:30:41;;;;;;;29.27;21.13;;;18.40;99.90;;;;;;5025004;28;20050;-71
2023/07/10 02:33:07;;;;;;;30.73;22.35;;;18.50;99.90;;;;;;4974122;28;208918;-71
2023/07/10 02:35:34;;;;;;;31.98;23.70;;;18.50;99.90;;;;;;5019753;28;20045;-71
2023/07/10 02:38:00;;;;;;;33.58;24.00;;;18.50;99.90;;;;;;4980458;28;217425;-70
2023/07/10 02:40:26;;;;;;;35.47;23.35;;;18.50;99.90;;;;;;5023747;28;20491;-70
2023/07/10 02:42:52;;;;;;;32.33;23.73;;;18.50;99.90;;;;;;4971737;28;211065;-70
2023/07/10 02:45:19;;;;;;;28.25;21.27;;;18.40;99.90;;;;;;5028183;28;20072;-71
2023/07/10 02:47:45;;;;;;;33.67;22.25;;;18.40;99.90;;;;;;4976565;28;219173;-70
2023/07/10 02:50:11;;;;;;;28.80;20.67;;;18.40;99.90;;;;;;5026037;28;20064;-70
2023/07/10 02:52:37;;;;;;;32.75;21.42;;;18.50;99.90;;;;;;4961366;28;219935;-70
2023/07/10 02:55:04;;;;;;;31.40;21.23;;;18.50;99.90;;;;;;5018175;28;20060;-70
2023/07/10 02:57:30;;;;;;;29.00;20.90;;;18.50;99.90;;;;;;4959696;28;209889;-70
2023/07/10 02:59:57;;;;;;;32.33;21.70;;;18.50;99.90;;;;;;5031795;28;20053;-70
2023/07/10 03:02:23;;;;;;;31.83;20.85;;;18.60;99.90;;;;;;4975242;28;212942;-70
2023/07/10 03:04:49;;;;;;;34.25;21.77;;;18.60;99.90;;;;;;5028641;28;20061;-70
2023/07/10 03:07:15;;;;;;;33.05;20.05;;;18.60;99.90;;;;;;4974930;28;210239;-70
2023/07/10 03:09:41;;;;;;;32.83;21.73;;;18.60;99.90;;;;;;5024906;28;20064;-71
2023/07/10 03:12:08;;;;;;;37.78;23.85;;;18.60;99.90;;;;;;4967092;28;216065;-70
2023/07/10 03:14:34;;;;;;;32.28;21.65;;;18.60;99.90;;;;;;5027927;28;20056;-70
2023/07/10 03:17:01;;;;;;;32.47;23.58;;;18.60;99.90;;;;;;4968861;28;216040;-70
2023/07/10 03:19:31;;;;;;;36.25;23.70;;;18.50;99.90;;;;;;5031937;28;20058;-70
2023/07/10 03:21:58;;;;;;;31.98;21.42;;;18.50;99.90;;;;;;4963553;28;210328;-70
2023/07/10 03:24:24;;;;;;;32.72;22.55;;;18.50;99.90;;;;;;5016287;28;20541;-70
2023/07/10 03:26:50;;;;;;;34.53;22.85;;;18.50;99.90;;;;;;4970248;28;156429;-70
2023/07/10 03:29:16;;;;;;;29.67;20.08;;;18.50;99.90;;;;;;5023105;28;20068;-69
2023/07/10 03:31:43;;;;;;;35.05;21.85;;;18.50;99.90;;;;;;4963746;28;213821;-70
2023/07/10 03:34:12;;;;;;;31.25;20.50;;;18.50;99.90;;;;;;5013089;28;20072;-70
2023/07/10 03:36:39;;;;;;;33.72;23.35;;;18.40;99.90;;;;;;4957128;28;215072;-70
2023/07/10 03:39:05;;;;;;;31.10;20.67;;;18.50;99.90;;;;;;5001136;28;20057;-70
2023/07/10 03:41:32;;;;;;;31.50;22.00;;;18.40;99.90;;;;;;4964149;28;215606;-69
2023/07/10 03:43:59;;;;;;;29.83;21.77;;;18.40;99.90;;;;;;5033006;28;20057;-70
2023/07/10 03:46:25;;;;;;;27.88;18.48;;;18.40;99.90;;;;;;4994696;28;209761;-72
2023/07/10 03:48:51;;;;;;;25.20;18.73;;;18.30;99.90;;;;;;4968350;28;201814;-71
2023/07/10 03:51:18;;;;;;;27.20;18.98;;;18.30;99.90;;;;;;5006344;28;20407;-70
2023/07/10 03:53:46;;;;;;;29.40;19.92;;;18.20;99.90;;;;;;4963267;28;143865;-70
2023/07/10 03:56:12;;;;;;;23.98;16.63;;;18.20;99.90;;;;;;4998912;28;20046;-70
2023/07/10 03:58:41;;;;;;;24.75;18.05;;;18.20;99.90;;;;;;4905036;28;225226;-70
2023/07/10 04:01:08;;;;;;;26.98;17.58;;;18.30;99.90;;;;;;5003277;28;20046;-70
2023/07/10 04:03:35;;;;;;;26.40;18.05;;;18.30;99.90;;;;;;4957336;28;212646;-70
2023/07/10 04:06:03;;;;;;;22.45;16.10;;;18.30;99.90;;;;;;5003823;28;20054;-70
2023/07/10 04:08:32;;;;;;;24.25;16.30;;;18.30;99.90;;;;;;4959888;28;212983;-69
2023/07/10 04:11:02;;;;;;;27.25;18.08;;;18.30;99.90;;;;;;5004122;28;20050;-70
2023/07/10 04:13:28;;;;;;;23.57;17.37;;;18.30;99.90;;;;;;4942875;28;210729;-70
2023/07/10 04:15:57;;;;;;;23.85;16.85;;;18.30;99.90;;;;;;5004205;28;20057;-69
2023/07/10 04:18:23;;;;;;;23.13;16.98;;;18.20;99.90;;;;;;4941168;28;232079;-71
2023/07/10 04:20:49;;;;;;;23.50;15.57;;;18.20;99.90;;;;;;5004015;28;20049;-69
2023/07/10 04:23:18;;;;;;;20.85;14.88;;;18.30;99.90;;;;;;4956076;28;125873;-70
2023/07/10 04:25:45;;;;;;;21.00;14.55;;;18.30;99.90;;;;;;5004250;28;20054;-70
2023/07/10 04:28:11;;;;;;;24.08;14.65;;;18.30;99.90;;;;;;4954759;28;213513;-70
2023/07/10 04:30:37;;;;;;;21.55;13.93;;;18.30;99.90;;;;;;5008919;28;20506;-70
2023/07/10 04:33:04;;;;;;;23.35;14.75;;;18.40;99.90;;;;;;4955032;28;211554;-69
2023/07/10 04:35:30;;;;;;;23.50;13.77;;;18.40;99.90;;;;;;5001688;28;20050;-70
2023/07/10 04:37:56;;;;;;;20.27;13.02;;;18.40;99.90;;;;;;4952973;28;215620;-71
2023/07/10 04:40:22;;;;;;;20.95;13.05;;;18.40;99.90;;;;;;5003555;28;20538;-70
2023/07/10 04:42:50;;;;;;;16.95;12.40;;;18.30;99.90;;;;;;4965059;28;214910;-70
2023/07/10 04:45:17;;;;;;;20.30;12.98;;;18.30;99.90;;;;;;5022820;28;20057;-70
2023/07/10 04:47:43;;;;;;;21.77;14.40;;;18.40;99.90;;;;;;4960553;28;211524;-70
2023/07/10 04:50:09;;;;;;;21.60;13.20;;;18.40;99.90;;;;;;5000721;28;20060;-70
2023/07/10 04:52:35;;;;;;;20.05;14.05;;;18.40;99.90;;;;;;4943091;28;213643;-70
2023/07/10 04:55:02;;;;;;;19.85;14.05;;;18.40;99.90;;;;;;5002235;28;20060;-71
2023/07/10 04:57:28;;;;;;;22.42;15.38;;;18.40;99.90;;;;;;4927065;28;206431;-69
2023/07/10 04:59:55;;;;;;;22.58;14.43;;;18.40;99.90;;;;;;5004418;28;20053;-69
2023/07/10 05:02:21;;;;;;;22.70;15.13;;;18.40;99.90;;;;;;4945762;28;210369;-70
2023/07/10 05:04:47;;;;;;;22.83;14.52;;;18.40;99.90;;;;;;4992831;28;20054;-71
2023/07/10 05:07:13;;;;;;;20.98;13.77;;;18.40;99.90;;;;;;4946859;28;206583;-71
2023/07/10 05:09:39;;;;;;;20.70;12.00;;;18.50;99.90;;;;;;4997556;28;20049;-70
2023/07/10 05:12:06;;;;;;;21.35;12.55;;;18.50;99.90;;;;;;4938467;28;209167;-70
2023/07/10 05:14:32;;;;;;;19.45;13.35;;;18.50;99.90;;;;;;4985468;28;20492;-70
2023/07/10 05:16:58;;;;;;;22.17;12.80;;;18.50;99.90;;;;;;4922209;28;208516;-71
2023/07/10 05:19:24;;;;;;;19.48;11.45;;;18.50;99.90;;;;;;4994780;28;20077;-69
2023/07/10 05:21:51;;;;;;;17.95;11.70;;;18.60;99.90;;;;;;4940378;28;213332;-71
2023/07/10 05:24:17;;;;;;;16.30;11.55;;;18.60;99.90;;;;;;4982066;28;20143;-70
2023/07/10 05:26:43;;;;;;;16.60;10.85;;;18.60;99.90;;;;;;4942179;28;220308;-71
2023/07/10 05:29:09;;;;;;;16.08;9.50;;;18.70;99.90;;;;;;4999602;28;20553;-70
2023/07/10 05:31:35;;;;;;;16.48;9.95;;;18.70;99.90;;;;;;4950818;28;207657;-70
2023/07/10 05:34:01;;;;;;;15.13;9.20;;;18.80;99.90;;;;;;5013687;28;20443;-70
2023/07/10 05:36:27;;;;;;;18.10;8.75;;;18.90;99.90;;;;;;4959452;28;216029;-69
2023/07/10 05:38:53;;;;;;;15.80;8.48;;;19.00;99.90;;;;;;5017320;28;20648;-70
2023/07/10 05:41:22;;;;;;;16.73;8.70;;;19.00;99.90;;;;;;5023375;28;20072;-70
2023/07/10 05:43:48;;;;;;;16.73;8.55;;;19.00;99.90;;;;;;4978796;28;190001;-70
2023/07/10 05:46:15;;;;;;;16.02;8.98;;;19.10;99.90;;;;;;5024697;28;20868;-70
2023/07/10 05:48:41;;;;;;;16.88;8.27;;;19.20;99.90;;;;;;4967106;28;219356;-69
2023/07/10 05:51:07;;;;;;;18.23;7.90;;;19.20;99.90;;;;;;5023592;28;20061;-69
2023/07/10 05:53:33;;;;;;;13.30;7.38;;;19.20;99.90;;;;;;4979170;28;217511;-69
2023/07/10 05:56:01;;;;;;;14.02;7.00;;;19.30;99.90;;;;;;5023497;28;20061;-69
2023/07/10 05:58:29;;;;;;;15.20;6.93;;;19.40;99.90;;;;;;4948664;28;212266;-70
2023/07/10 06:00:57;;;;;;;12.20;6.25;;;19.30;99.90;;;;;;5022288;28;20533;-69
2023/07/10 06:03:24;;;;;;;12.43;5.88;;;19.30;99.90;;;;;;4962722;28;212866;-69
2023/07/10 06:06:00;;;;;;;12.38;5.00;;;19.30;99.90;;;;;;5028466;28;20045;-70
2023/07/10 06:08:27;;;;;;;14.05;4.78;;;19.30;99.90;;;;;;4977004;28;224163;-70
2023/07/10 06:10:53;;;;;;;11.85;4.40;;;19.40;99.90;;;;;;5006732;28;20056;-70
2023/07/10 06:13:20;;;;;;;14.27;4.78;;;19.40;99.90;;;;;;4969770;28;218661;-70
2023/07/10 06:15:49;;;;;;;14.20;4.40;;;19.50;99.90;;;;;;5017848;28;20060;-70
2023/07/10 06:18:15;;;;;;;11.77;3.85;;;19.70;99.90;;;;;;4964599;28;207557;-70
2023/07/10 06:20:42;;;;;;;9.82;3.67;;;20.10;99.90;;;;;;5026406;28;20053;-70
2023/07/10 06:23:08;;;;;;;13.63;3.13;;;20.50;99.90;;;;;;4966581;28;217946;-71
2023/07/10 06:25:34;;;;;;;10.73;3.17;;;20.80;99.90;;;;;;5021790;28;20053;-70
2023/07/10 06:28:00;;;;;;;13.82;3.38;;;20.80;99.90;;;;;;4977208;28;212929;-71
2023/07/10 06:30:26;;;;;;;9.48;2.80;;;20.60;99.90;;;;;;5021405;28;20058;-71
2023/07/10 06:32:52;;;;;;;12.23;3.33;;;20.30;99.90;;;;;;4977068;28;202703;-71
2023/07/10 06:35:18;;;;;;;10.82;2.85;;;20.20;99.90;;;;;;5026524;28;20062;-71
2023/07/10 06:37:45;;;;;;;14.48;3.25;;;20.10;99.90;;;;;;4975945;28;215029;-70
2023/07/10 06:40:16;;;;;;;9.60;2.88;;;19.90;99.90;;;;;;5021521;28;20053;-70
2023/07/10 06:42:42;;;;;;;11.30;2.95;;;20.20;99.90;;;;;;4971089;28;210554;-70
2023/07/10 06:45:11;;;;;;;10.13;2.70;;;20.50;99.90;;;;;;5027095;28;20056;-70
2023/07/10 06:47:43;;;;;;;9.98;2.65;;;20.80;99.90;;;;;;4972489;28;215286;-71
2023/07/10 06:50:12;;;;;;;11.25;3.53;;;21.20;99.90;;;;;;5022161;28;20049;-70
2023/07/10 06:52:40;;;;;;;10.90;2.55;;;21.40;99.90;;;;;;4963019;28;208605;-70
2023/07/10 06:55:07;;;;;;;12.77;2.30;;;21.50;99.90;;;;;;5018149;28;20061;-70
2023/07/10 06:57:34;;;;;;;12.35;2.58;;;21.60;99.90;;;;;;4958536;28;209949;-70
2023/07/10 07:00:01;;;;;;;8.85;2.20;;;21.70;99.90;;;;;;5019111;28;20069;-70
2023/07/10 07:02:27;;;;;;;9.10;2.00;;;21.60;99.90;;;;;;4947052;28;205768;-68
2023/07/10 07:04:53;;;;;;;10.10;2.22;;;21.90;99.90;;;;;;5017858;28;20666;-69
2023/07/10 07:07:19;;;;;;;10.77;2.42;;;22.10;99.90;;;;;;4941782;28;212440;-70
2023/07/10 07:09:45;;;;;;;12.30;2.42;;;22.20;99.90;;;;;;4995102;28;20065;-70
2023/07/10 07:12:12;;;;;;;10.57;2.15;;;22.40;99.90;;;;;;4950131;28;216199;-69
2023/07/10 07:14:38;;;;;;;9.95;2.00;;;22.50;99.90;;;;;;5012502;28;20072;-69
2023/07/10 07:17:05;;;;;;;8.93;1.88;;;22.50;99.90;;;;;;4945219;28;214276;-70
2023/07/10 07:19:31;;;;;;;11.55;2.22;;;22.70;99.90;;;;;;5002459;28;20407;-70
2023/07/10 07:21:59;;;;;;;8.80;1.95;;;23.00;99.90;;;;;;4952564;28;211381;-70
2023/07/10 07:24:25;;;;;;;10.38;2.22;;;23.30;99.90;;;;;;4998669;28;20507;-70
2023/07/10 07:26:51;;;;;;;9.75;2.20;;;23.30;99.90;;;;;;4953245;28;211911;-70
2023/07/10 07:29:18;;;;;;;10.57;2.05;;;23.30;99.90;;;;;;5018024;28;20058;-70
2023/07/10 07:31:44;;;;;;;10.85;2.40;;;23.20;99.90;;;;;;4950867;28;208908;-71
2023/07/10 07:34:10;;;;;;;11.75;2.38;;;23.30;99.90;;;;;;5019421;28;20056;-70
2023/07/10 07:36:37;;;;;;;11.57;2.47;;;23.60;99.90;;;;;;4957688;28;219741;-70
2023/07/10 07:39:04;;;;;;;11.75;2.17;;;23.70;99.90;;;;;;5002085;28;20064;-71
2023/07/10 07:41:32;;;;;;;10.48;2.70;;;23.90;99.90;;;;;;4948383;28;217379;-71
2023/07/10 07:44:02;;;;;;;9.90;1.88;;;24.00;99.90;;;;;;4990035;28;20061;-72
2023/07/10 07:46:28;;;;;;;10.38;2.13;;;24.10;99.90;;;;;;4962578;28;214270;-71
2023/07/10 07:48:55;;;;;;;14.07;2.42;;;24.20;99.90;;;;;;5004352;28;20482;-71
2023/07/10 07:51:21;;;;;;;10.20;2.20;;;24.40;99.90;;;;;;5004040;28;212457;-68
2023/07/10 07:53:47;;;;;;;14.50;2.45;;;24.40;99.90;;;;;;4993720;28;74274;-71
2023/07/10 07:56:14;;;;;;;10.85;2.28;;;24.50;99.90;;;;;;5005047;28;20050;-71
2023/07/10 07:58:40;;;;;;;14.05;2.42;;;24.70;99.90;;;;;;4951134;28;210117;-71
2023/07/10 08:01:06;;;;;;;12.90;2.35;;;24.80;99.90;;;;;;5024451;28;20537;-70
2023/07/10 08:03:32;;;;;;;10.85;2.08;;;24.90;99.90;;;;;;4954436;28;211148;-72
2023/07/10 08:05:58;;;;;;;11.63;2.30;;;24.80;99.90;;;;;;5005813;28;20053;-72
2023/07/10 08:08:24;;;;;;;11.40;2.17;;;24.90;99.90;;;;;;4946162;28;222166;-71
2023/07/10 08:10:51;;;;;;;9.93;2.35;;;25.00;99.90;;;;;;5010190;28;20057;-74
2023/07/10 08:13:19;;;;;;;10.43;2.17;;;25.30;99.90;;;;;;4965321;28;224122;-71
2023/07/10 08:15:47;;;;;;;10.40;2.13;;;25.40;99.90;;;;;;5003003;28;20061;-72
2023/07/10 08:18:13;;;;;;;14.02;2.55;;;25.20;99.90;;;;;;4958259;28;207918;-71
2023/07/10 08:20:39;;;;;;;12.48;2.60;;;25.00;99.90;;;;;;5024704;28;20053;-71
2023/07/10 08:23:05;;;;;;;10.25;2.20;;;25.00;99.90;;;;;;4960224;28;207515;-71
2023/07/10 08:25:31;;;;;;;10.50;2.28;;;25.20;99.70;;;;;;5008223;28;20054;-71
2023/07/10 08:27:58;;;;;;;13.05;2.65;;;25.40;99.90;;;;;;4965341;28;215977;-71
2023/07/10 08:30:25;;;;;;;9.98;2.20;;;25.30;99.90;;;;;;5010256;28;20057;-72
2023/07/10 08:32:51;;;;;;;11.02;2.20;;;25.10;99.90;;;;;;4939528;28;207231;-71
2023/07/10 08:35:17;;;;;;;13.35;2.83;;;25.10;99.90;;;;;;4999883;28;20050;-72
2023/07/10 08:37:43;;;;;;;12.27;2.40;;;25.40;99.30;;;;;;4957037;28;222603;-72
2023/07/10 08:40:16;;;;;;;11.80;2.60;;;25.60;99.70;;;;;;5003807;28;20538;-71
2023/07/10 08:42:42;;;;;;;12.73;2.60;;;25.80;98.60;;;;;;4944228;28;221948;-71
2023/07/10 08:45:16;;;;;;;10.70;2.50;;;26.10;99.30;;;;;;5000208;28;20070;-70
2023/07/10 08:47:48;;;;;;;12.48;2.60;;;26.50;99.40;;;;;;4948533;28;207593;-70
2023/07/10 08:50:28;;;;;;;12.70;2.30;;;26.80;99.30;;;;;;5012529;28;20050;-70
2023/07/10 08:53:06;;;;;;;9.30;2.17;;;26.80;97.70;;;;;;4946017;28;227543;-71
2023/07/10 08:55:54;;;;;;;11.07;2.42;;;26.40;97.30;;;;;;4995242;28;20319;-71
2023/07/10 08:58:30;;;;;;;14.25;2.90;;;26.20;98.10;;;;;;4944886;28;212258;-70
2023/07/10 09:01:00;;;;;;;10.38;2.45;;;25.80;98.00;;;;;;5022040;28;20072;-70
2023/07/10 09:03:46;;;;;;;13.50;2.50;;;26.00;98.80;;;;;;4957262;28;212644;-70
2023/07/10 09:06:21;;;;;;;12.77;2.45;;;26.20;98.80;;;;;;5006145;28;20054;-71
2023/07/10 09:08:50;;;;;;;10.50;2.30;;;26.70;98.30;;;;;;4957854;28;212906;-71
2023/07/10 09:11:17;;;;;;;11.52;2.80;;;26.10;98.10;;;;;;5006498;28;20057;-70
2023/07/10 09:13:53;;;;;;;11.93;2.72;;;26.30;97.90;;;;;;4938813;28;213641;-71
2023/07/10 09:16:20;;;;;;;14.35;3.10;;;26.50;97.90;;;;;;5001761;28;20069;-71
2023/07/10 09:19:05;;;;;;;17.15;3.05;;;26.70;97.10;;;;;;4941740;28;169095;-71
2023/07/10 09:21:36;;;;;;;10.02;2.40;;;27.10;96.60;;;;;;4944155;28;219095;-71
2023/07/10 09:24:11;;;;;;;14.93;2.72;;;26.90;97.40;;;;;;5018769;28;20056;-71
2023/07/10 09:26:39;;;;;;;12.47;2.87;;;26.90;96.90;;;;;;4949297;28;210604;-71
2023/07/10 09:29:14;;;;;;;15.52;2.95;;;27.10;97.10;;;;;;5042014;28;20072;-71
2023/07/10 09:32:02;;;;;;;14.23;2.60;;;26.90;97.20;;;;;;4968785;28;205406;-71
2023/07/10 09:34:31;;;;;;;15.15;2.80;;;26.90;96.70;;;;;;5024829;28;20084;-70
2023/07/10 09:36:59;;;;;;;17.08;3.08;;;27.10;96.50;;;;;;4975476;28;220189;-71
2023/07/10 09:39:30;;;;;;;11.75;2.65;;;27.40;96.60;;;;;;5035311;28;20057;-71
2023/07/10 09:42:02;;;;;;;12.45;2.88;;;27.90;96.20;;;;;;4971934;28;215291;-71
2023/07/10 09:44:37;;;;;;;11.63;2.60;;;27.90;95.00;;;;;;5040882;28;20057;-72
2023/07/10 09:47:15;;;;;;;11.70;2.55;;;27.90;95.50;;;;;;4977276;28;211646;-71
2023/07/10 09:49:47;;;;;;;12.05;2.53;;;27.40;95.30;;;;;;5032599;28;20050;-71
2023/07/10 09:52:37;;;;;;;11.77;2.53;;;27.00;95.40;;;;;;4982425;28;212826;-72
2023/07/10 09:55:16;;;;;;;9.85;2.25;;;27.00;96.30;;;;;;5027071;28;20386;-70
2023/07/10 09:57:48;;;;;;;13.05;2.70;;;27.50;95.10;;;;;;4949254;28;215085;-73
2023/07/10 10:00:18;;;;;;;14.65;2.72;;;27.80;94.80;;;;;;5026050;28;20049;-71
2023/07/10 10:02:52;;;;;;;12.32;2.60;;;28.10;94.10;;;;;;4959362;28;231856;-70
2023/07/10 10:05:19;;;;;;;13.07;2.67;;;28.30;94.60;;;;;;5022358;28;20056;-71
2023/07/10 10:07:47;;;;;;;15.65;2.70;;;28.30;94.40;;;;;;4983992;28;215964;-72
2023/07/10 10:10:25;;;;;;;12.98;2.45;;;28.00;94.10;;;;;;5024912;28;20049;-72
2023/07/10 10:13:12;;;;;;;13.85;2.45;;;28.10;93.90;;;;;;4979222;28;219348;-71
2023/07/10 10:15:55;;;;;;;11.52;2.53;;;28.30;93.90;;;;;;5028512;28;20057;-71
2023/07/10 10:18:36;;;;;;;11.43;2.33;;;27.70;94.40;;;;;;4965365;28;209221;-71
2023/07/10 10:21:03;;;;;;;12.23;2.65;;;28.30;94.00;;;;;;5007171;28;20057;-71
2023/07/10 10:23:32;;;;;;;12.45;2.38;;;28.70;93.60;;;;;;4984228;28;210237;-71
2023/07/10 10:26:31;;;;;;;11.90;2.45;;;28.50;93.50;;;;;;5029534;28;20048;-71
2023/07/10 10:29:12;;;;;;;11.18;2.30;;;28.90;93.40;;;;;;4965172;28;50447;-72
2023/07/10 10:31:40;;;;;;;12.45;2.50;;;29.30;92.90;;;;;;4973807;28;219456;-70
2023/07/10 10:34:44;;;;;;;12.25;2.53;;;28.70;93.00;;;;;;5013386;28;20057;-71
2023/07/10 10:37:13;;;;;;;12.10;2.17;;;28.60;92.50;;;;;;4974032;28;219520;-70
2023/07/10 10:39:47;;;;;;;10.77;2.03;;;28.70;93.00;;;;;;5018233;28;20049;-70
2023/07/10 10:42:37;;;;;;;13.10;2.60;;;29.00;92.30;;;;;;4966635;28;220003;-70
2023/07/10 10:45:28;;;;;;;20.27;2.70;;;28.50;93.20;;;;;;5032546;28;20060;-71
2023/07/10 10:47:59;;;;;;;;;;;29.00;92.90;;;;;;4978063;28;207251;-70
2023/07/10 10:50:38;;;;;;;11.02;2.50;;;29.20;92.20;;;;;;5031752;28;19916;-70
2023/07/10 10:53:14;;;;;;;14.18;2.60;;;29.30;92.90;;;;;;4974467;28;215865;-71
2023/07/10 10:56:03;;;;;;;11.55;2.53;;;29.10;92.30;;;;;;5025239;28;20057;-69
2023/07/10 10:58:32;;;;;;;13.25;2.58;;;29.30;92.70;;;;;;4942668;28;218551;-71
2023/07/10 11:01:18;;;;;;;10.20;2.28;;;29.30;91.50;;;;;;5027001;28;20053;-69
2023/07/10 11:03:54;;;;;;;12.32;2.42;;;29.30;91.70;;;;;;4967238;28;143605;-70
2023/07/10 11:06:52;;;;;;;9.02;1.80;;;29.30;91.50;;;;;;5026812;28;20060;-69
2023/07/10 11:09:38;;;;;;;11.40;2.53;;;29.60;91.00;;;;;;4968979;28;24018;-69
2023/07/10 11:12:08;;;;;;;13.85;2.50;;;28.90;90.80;;;;;;4974572;28;215041;-69
2023/07/10 11:14:34;;;;;;;11.48;2.33;;;28.50;91.70;;;;;;5023202;28;20053;-71
2023/07/10 11:17:00;;;;;;;11.82;2.45;;;27.90;92.20;;;;;;4956800;28;218976;-69
2023/07/10 11:19:29;;;;;;;13.38;2.65;;;27.80;92.40;;;;;;5023493;28;20054;-69
2023/07/10 11:22:08;;;;;;;12.00;2.60;;;28.00;92.60;;;;;;4985969;28;154513;-69
2023/07/10 11:24:35;;;;;;;10.10;2.15;;;28.50;92.90;;;;;;5025160;28;20053;-69
2023/07/10 11:27:10;;;;;;;11.50;2.25;;;28.60;91.40;;;;;;4970626;28;207427;-68
2023/07/10 11:29:43;;;;;;;12.98;2.50;;;27.70;91.90;;;;;;5029279;28;20049;-70
2023/07/10 11:32:17;;;;;;;14.57;2.33;;;27.40;92.20;;;;;;4961322;28;224030;-70
2023/07/10 11:35:16;;;;;;;11.23;2.35;;;27.00;92.50;;;;;;5023657;28;20426;-70
2023/07/10 11:37:48;;;;;;;15.00;2.33;;;26.60;92.70;;;;;;4972481;28;234726;-71
2023/07/10 11:40:26;;;;;;;11.10;2.50;;;25.80;93.30;;;;;;5027319;28;20461;-70
2023/07/10 11:42:56;;;;;;;12.27;2.65;;;25.40;93.80;;;;;;4969985;28;212992;-70
2023/07/10 11:45:35;;;;;;;12.48;2.20;;;25.40;94.00;;;;;;5015240;28;20050;-70
2023/07/10 11:48:01;;;;;;;10.30;2.10;;;25.30;94.20;;;;;;4968511;28;208926;-70
2023/07/10 11:50:29;;;;;;;12.32;2.40;;;25.30;94.10;;;;;;5026324;28;20049;-71
2023/07/10 11:53:20;;;;;;;11.98;2.28;;;25.80;94.00;;;;;;4967120;28;212934;-69
2023/07/10 11:56:13;;;;;;;10.27;2.10;;;26.30;93.70;;;;;;5017695;28;20041;-70
2023/07/10 11:58:41;;;;;;;12.73;2.42;;;27.10;93.50;;;;;;4959616;28;217160;-69
2023/07/10 12:01:22;;;;;;;12.77;2.25;;;27.30;92.60;;;;;;5006782;28;20054;-68
2023/07/10 12:03:51;;;;;;;9.77;2.05;;;26.70;92.50;;;;;;4974938;28;157453;-69
2023/07/10 12:06:21;;;;;;;9.45;2.10;;;26.50;93.20;;;;;;5024929;28;20060;-71
2023/07/10 12:08:49;;;;;;;11.07;2.17;;;26.70;92.90;;;;;;4954683;28;194703;-70
2023/07/10 12:11:30;;;;;;;10.95;1.85;;;27.10;92.30;;;;;;5017927;28;20125;-69
2023/07/10 12:14:13;;;;;;;10.25;2.10;;;27.40;91.30;;;;;;4992578;28;20715;-68
2023/07/10 12:16:56;;;;;;;11.60;2.10;;;27.60;91.90;;;;;;4962484;28;206763;-69
2023/07/10 12:19:31;;;;;;;11.00;1.90;;;27.90;91.40;;;;;;5030719;28;20052;-71
2023/07/10 12:22:02;;;;;;;9.55;1.80;;;27.60;90.80;;;;;;4968895;28;213789;-69
2023/07/10 12:24:29;;;;;;;9.70;1.52;;;27.90;91.00;;;;;;5018843;28;20045;-70
2023/07/10 12:26:58;;;;;;;12.18;2.15;;;27.80;90.40;;;;;;4969932;28;215889;-70
2023/07/10 12:29:25;;;;;;;12.82;2.00;;;28.20;90.40;;;;;;5036802;28;20057;-69
2023/07/10 12:31:51;;;;;;;11.15;1.85;;;28.00;90.10;;;;;;4970999;28;209823;-69
2023/07/10 12:34:25;;;;;;;9.27;1.90;;;28.10;90.50;;;;;;5032905;28;20664;-68
2023/07/10 12:36:53;;;;;;;8.70;1.80;;;28.70;90.00;;;;;;4967992;28;212535;-69
2023/07/10 12:39:21;;;;;;;8.82;1.70;;;28.60;88.80;;;;;;5034616;28;20071;-69
2023/07/10 12:41:52;;;;;;;9.73;2.08;;;28.70;89.60;;;;;;4965200;28;227973;-69